Time;durP1;ratioP1;P1;durP2;ratioP2;P2;SDS_P1;SDS_P2;PMS_P1;PMS_P2;Temp;Humidity;BMP_temperature;BMP_pressure;BME280_temperature;BME280_humidity;BME280_pressure;Samples;Min_cycle;Max_cycle;Signal;HPM_P1;HPM_P2
2023/03/31 00:00:27;;;;;;;4.10;0.95;;;;;;;9.78;100.00;100230.75;5059768;28;20523;-76
2023/03/31 00:02:54;;;;;;;7.65;1.33;;;;;;;9.83;100.00;100230.25;5061528;28;20078;-75
2023/03/31 00:05:23;;;;;;;6.85;1.38;;;;;;;9.80;100.00;100220.22;5062186;28;20035;-76
2023/03/31 00:08:01;;;;;;;7.95;1.20;;;;;;;9.82;100.00;100216.50;5060659;28;20075;-76
2023/03/31 00:10:30;;;;;;;8.52;1.40;;;;;;;9.97;100.00;100215.81;5065171;28;20036;-76
2023/03/31 00:12:56;;;;;;;7.38;1.13;;;;;;;9.86;100.00;100215.19;5046988;28;20029;-75
2023/03/31 00:15:22;;;;;;;5.65;1.45;;;;;;;9.90;100.00;100200.94;5060534;28;20736;-76
2023/03/31 00:17:47;;;;;;;8.95;1.27;;;;;;;9.96;100.00;100194.28;5049543;28;20033;-76
2023/03/31 00:20:13;;;;;;;7.60;1.40;;;;;;;9.94;100.00;100199.66;5055037;28;20495;-76
2023/03/31 00:22:41;;;;;;;6.18;1.30;;;;;;;9.91;100.00;100197.38;5051529;28;20494;-75
2023/03/31 00:25:09;;;;;;;6.80;1.80;;;;;;;9.98;100.00;100196.69;5059663;28;20139;-76
2023/03/31 00:27:35;;;;;;;4.70;1.17;;;;;;;9.86;100.00;100189.28;5062448;28;20492;-76
2023/03/31 00:30:01;;;;;;;5.88;1.02;;;;;;;9.82;100.00;100182.84;5059713;28;20079;-76
2023/03/31 00:32:26;;;;;;;7.45;1.50;;;;;;;9.91;100.00;100181.03;5042917;28;20111;-77
2023/03/31 00:34:52;;;;;;;5.82;1.67;;;;;;;9.86;100.00;100167.78;5048176;28;20269;-77
2023/03/31 00:37:17;;;;;;;4.50;1.92;;;;;;;9.79;100.00;100162.44;5048326;28;20032;-76
2023/03/31 00:39:43;;;;;;;6.88;1.27;;;;;;;9.84;100.00;100162.75;5061719;28;20040;-76
2023/03/31 00:42:12;;;;;;;5.97;1.40;;;;;;;9.91;100.00;100142.19;5062948;28;20039;-76
2023/03/31 00:45:13;;;;;;;10.45;1.30;;;;;;;9.91;100.00;100137.00;5063389;28;20263;-76
2023/03/31 00:47:59;;;;;;;6.50;1.55;;;;;;;9.85;100.00;100137.66;5043720;28;20432;-76
2023/03/31 00:50:29;;;;;;;8.00;1.52;;;;;;;9.82;100.00;100119.88;5059450;28;20044;-75
2023/03/31 00:52:59;;;;;;;9.75;1.40;;;;;;;9.81;100.00;100115.66;5063409;28;20072;-77
2023/03/31 00:55:32;;;;;;;9.70;1.30;;;;;;;9.76;100.00;100108.41;5055361;28;20124;-76
2023/03/31 00:58:00;;;;;;;4.72;1.10;;;;;;;9.75;100.00;100114.56;5062886;28;20128;-76
2023/03/31 01:00:26;;;;;;;7.82;1.17;;;;;;;9.76;100.00;100111.00;5062700;28;20040;-76
2023/03/31 01:02:57;;;;;;;5.95;1.00;;;;;;;9.78;100.00;100103.88;5050744;28;20028;-76
2023/03/31 01:05:41;;;;;;;12.23;1.50;;;;;;;9.79;100.00;100097.69;5046588;28;20075;-76
2023/03/31 01:08:07;;;;;;;13.27;1.15;;;;;;;9.75;100.00;100088.66;5046710;28;20028;-76
2023/03/31 01:10:40;;;;;;;6.47;1.33;;;;;;;9.72;100.00;100081.25;5048613;28;20044;-76
2023/03/31 01:13:08;;;;;;;3.88;0.70;;;;;;;9.71;100.00;100077.03;5064704;28;20029;-77
2023/03/31 01:15:34;;;;;;;7.60;1.50;;;;;;;9.74;100.00;100064.56;5064001;28;20111;-76
2023/03/31 01:17:59;;;;;;;8.30;1.25;;;;;;;9.84;100.00;100072.13;5046598;28;20098;-76
2023/03/31 01:20:40;;;;;;;8.68;1.35;;;;;;;9.78;100.00;100062.44;5065923;28;20036;-76
2023/03/31 01:23:57;;;;;;;8.77;1.30;;;;;;;9.79;100.00;100056.28;5045020;28;20390;-76
2023/03/31 01:26:41;;;;;;;9.05;1.08;;;;;;;9.76;100.00;100059.22;5002138;28;20045;-75
2023/03/31 01:29:38;;;;;;;9.77;1.45;;;;;;;9.82;100.00;100050.78;5066896;28;20035;-75
2023/03/31 01:32:21;;;;;;;6.03;1.10;;;;;;;9.90;100.00;100047.34;5053858;28;20471;-76
2023/03/31 01:34:56;;;;;;;;;;;;;;;9.90;100.00;100036.97;5049848;28;20562;-76
2023/03/31 01:37:40;;;;;;;9.90;1.20;;;;;;;9.88;100.00;100044.91;5067674;28;20046;-76
2023/03/31 01:40:15;;;;;;;8.40;1.30;;;;;;;9.99;100.00;100037.75;5050317;28;20376;-76
2023/03/31 01:43:09;;;;;;;10.27;1.77;;;;;;;9.98;100.00;100031.75;5065210;28;20027;-76
2023/03/31 01:45:55;;;;;;;7.80;1.50;;;;;;;9.97;100.00;100022.38;5064672;28;20037;-76
2023/03/31 01:48:40;;;;;;;10.50;1.38;;;;;;;9.89;100.00;100015.47;5064441;28;20588;-76
2023/03/31 01:51:16;;;;;;;12.50;1.48;;;;;;;9.92;100.00;100016.88;5049922;28;20115;-77
2023/03/31 01:54:04;;;;;;;10.02;1.85;;;;;;;9.98;100.00;100008.44;5047797;28;20082;-77
2023/03/31 01:56:38;;;;;;;9.10;1.58;;;;;;;9.91;100.00;100005.75;5066898;28;20490;-77
2023/03/31 01:59:28;;;;;;;13.73;1.98;;;;;;;9.97;100.00;100001.66;5053381;28;20051;-76
2023/03/31 02:02:07;;;;;;;13.90;1.65;;;;;;;9.95;100.00;99998.44;5048894;28;20476;-77
2023/03/31 02:04:37;;;;;;;10.63;2.42;;;;;;;10.02;100.00;99996.78;5063492;28;20036;-76
2023/03/31 02:07:18;;;;;;;9.93;2.10;;;;;;;10.01;100.00;99987.38;5061456;28;20037;-77
2023/03/31 02:09:52;;;;;;;12.50;1.98;;;;;;;9.99;100.00;99981.56;5045257;28;20487;-77
2023/03/31 02:12:20;;;;;;;17.98;2.08;;;;;;;10.02;100.00;99981.25;5060444;28;20483;-77
2023/03/31 02:14:50;;;;;;;20.08;3.72;;;;;;;10.07;100.00;99978.91;5045141;28;20025;-77
2023/03/31 02:17:19;;;;;;;18.25;3.28;;;;;;;10.12;100.00;99962.88;5061954;28;20193;-76
2023/03/31 02:19:50;;;;;;;18.05;2.92;;;;;;;10.03;100.00;99951.75;5063350;28;20405;-76
2023/03/31 02:22:19;;;;;;;21.88;3.03;;;;;;;10.02;100.00;99942.38;5052685;28;20467;-76
2023/03/31 02:24:47;;;;;;;18.48;3.28;;;;;;;10.00;100.00;99934.00;5062630;28;20025;-76
2023/03/31 02:27:36;;;;;;;21.02;4.45;;;;;;;10.02;100.00;99926.84;5062955;28;20383;-77
2023/03/31 02:30:03;;;;;;;20.80;2.85;;;;;;;10.11;100.00;99909.44;5047276;28;20052;-76
2023/03/31 02:32:35;;;;;;;18.55;2.30;;;;;;;10.06;100.00;99896.22;5060051;28;20037;-77
2023/03/31 02:35:01;;;;;;;16.40;2.83;;;;;;;9.97;100.00;99899.84;5047759;28;20049;-77
2023/03/31 02:37:29;;;;;;;18.13;2.72;;;;;;;9.98;100.00;99889.28;5059496;28;20067;-76
2023/03/31 02:39:56;;;;;;;12.90;2.58;;;;;;;10.00;100.00;99871.81;5060203;28;20040;-77
2023/03/31 02:42:23;;;;;;;15.90;2.28;;;;;;;10.01;100.00;99857.09;5064904;28;20163;-77
2023/03/31 02:44:50;;;;;;;25.42;3.88;;;;;;;9.99;100.00;99864.22;5051316;28;20116;-75
2023/03/31 02:47:19;;;;;;;16.90;3.03;;;;;;;9.92;100.00;99864.09;5049936;28;20554;-76
2023/03/31 02:49:49;;;;;;;17.08;2.15;;;;;;;9.98;100.00;99860.00;5063666;28;20040;-77
2023/03/31 02:52:33;;;;;;;12.40;1.98;;;;;;;9.86;100.00;99837.13;5051218;28;20028;-76
2023/03/31 02:55:20;;;;;;;18.65;2.10;;;;;;;9.93;100.00;99832.06;5058094;28;20483;-76
2023/03/31 02:58:11;;;;;;;20.85;2.35;;;;;;;9.93;100.00;99814.72;5048055;28;20067;-76
2023/03/31 03:00:52;;;;;;;22.92;3.78;;;;;;;9.97;100.00;99804.03;5046261;28;20411;-76
2023/03/31 03:03:51;;;;;;;17.13;2.65;;;;;;;9.92;100.00;99810.53;5068042;28;20023;-77
2023/03/31 03:06:58;;;;;;;17.48;2.63;;;;;;;9.96;100.00;99805.78;5063508;28;20127;-76
2023/03/31 03:09:49;;;;;;;19.02;1.92;;;;;;;9.85;100.00;99798.44;5003688;28;20033;-76
2023/03/31 03:12:39;;;;;;;14.25;2.15;;;;;;;9.90;100.00;99783.19;5045628;28;20025;-77
2023/03/31 03:15:12;;;;;;;16.38;1.70;;;;;;;9.82;100.00;99762.56;5061244;28;20066;-76
2023/03/31 03:17:44;;;;;;;11.95;2.00;;;;;;;9.87;100.00;99771.41;5061379;28;20036;-76
2023/03/31 03:20:11;;;;;;;10.88;1.95;;;;;;;9.87;100.00;99761.06;5060169;28;20035;-77
2023/03/31 03:22:38;;;;;;;12.88;1.98;;;;;;;9.89;100.00;99759.09;5066991;28;20020;-76
2023/03/31 03:25:08;;;;;;;12.52;2.08;;;;;;;9.97;100.00;99750.44;5061559;28;20068;-76
2023/03/31 03:27:34;;;;;;;13.25;4.03;;;;;;;9.93;100.00;99762.94;5066692;28;20083;-76
2023/03/31 03:30:02;;;;;;;12.65;4.13;;;;;;;9.83;100.00;99759.00;5035652;28;20060;-76
2023/03/31 03:32:28;;;;;;;19.83;4.55;;;;;;;9.90;100.00;99747.75;5059105;28;20068;-76
2023/03/31 03:34:53;;;;;;;18.08;5.60;;;;;;;9.92;100.00;99757.94;5046036;28;20075;-75
2023/03/31 03:37:19;;;;;;;14.77;3.60;;;;;;;9.95;100.00;99752.41;5060125;28;20039;-76
2023/03/31 03:39:44;;;;;;;26.00;6.20;;;;;;;9.81;100.00;99746.22;5064734;28;20506;-76
2023/03/31 03:42:10;;;;;;;11.00;3.17;;;;;;;9.77;100.00;99744.97;5055439;28;20506;-76
2023/03/31 03:44:35;;;;;;;18.67;3.88;;;;;;;9.87;100.00;99724.00;5059174;28;20037;-76
2023/03/31 03:47:01;;;;;;;22.10;3.25;;;;;;;9.92;100.00;99696.59;5047913;28;20094;-76
2023/03/31 03:49:26;;;;;;;12.63;2.13;;;;;;;9.98;100.00;99695.06;5061311;28;20036;-76
2023/03/31 03:51:52;;;;;;;11.55;2.63;;;;;;;9.88;100.00;99703.09;5048468;28;20383;-73
2023/03/31 03:54:18;;;;;;;10.68;1.83;;;;;;;9.92;100.00;99695.78;5047516;28;20036;-76
2023/03/31 03:56:43;;;;;;;11.18;1.63;;;;;;;9.92;100.00;99711.31;5041192;28;20063;-75
2023/03/31 03:59:10;;;;;;;11.90;1.70;;;;;;;9.91;100.00;99697.56;5047954;28;20044;-75
2023/03/31 04:01:36;;;;;;;10.82;1.40;;;;;;;9.92;100.00;99704.34;5049567;28;20040;-76
2023/03/31 04:04:02;;;;;;;12.57;1.75;;;;;;;9.91;100.00;99697.56;5043677;28;20051;-76
2023/03/31 04:06:27;;;;;;;10.35;1.67;;;;;;;9.88;100.00;99689.34;5060259;28;20032;-76
2023/03/31 04:08:53;;;;;;;10.32;1.52;;;;;;;10.00;100.00;99680.19;5062157;28;20401;-75
2023/03/31 04:11:18;;;;;;;15.43;2.78;;;;;;;9.90;100.00;99674.44;5062952;28;20090;-76
2023/03/31 04:13:45;;;;;;;14.57;2.47;;;;;;;9.91;100.00;99671.69;5060917;28;20059;-76
2023/03/31 04:16:10;;;;;;;10.90;2.47;;;;;;;9.88;100.00;99666.06;5062000;28;20037;-76
2023/03/31 04:18:41;;;;;;;15.45;3.13;;;;;;;10.01;100.00;99655.06;5064337;28;20040;-76
2023/03/31 04:21:11;;;;;;;11.05;1.83;;;;;;;9.92;100.00;99631.84;5057352;28;20489;-76
2023/03/31 04:23:41;;;;;;;11.25;2.78;;;;;;;9.94;100.00;99622.13;5042299;28;20035;-76
2023/03/31 04:26:08;;;;;;;16.92;1.75;;;;;;;9.91;100.00;99619.91;5062451;28;20072;-75
2023/03/31 04:28:35;;;;;;;8.57;1.60;;;;;;;9.87;100.00;99623.00;5058196;28;20116;-76
2023/03/31 04:31:02;;;;;;;4.18;1.40;;;;;;;9.82;100.00;99610.63;5058815;28;20048;-76
2023/03/31 04:33:27;;;;;;;13.43;2.83;;;;;;;9.84;100.00;99602.66;5046487;28;20032;-76
2023/03/31 04:35:53;;;;;;;8.75;1.65;;;;;;;9.94;100.00;99606.59;5062320;28;20028;-75
2023/03/31 04:38:25;;;;;;;5.32;1.42;;;;;;;9.94;100.00;99593.66;5052018;28;20079;-76
2023/03/31 04:40:52;;;;;;;6.18;1.85;;;;;;;9.97;100.00;99583.91;5064504;28;20052;-76
2023/03/31 04:43:19;;;;;;;5.22;1.88;;;;;;;9.87;100.00;99579.81;5065603;28;20363;-76
2023/03/31 04:45:45;;;;;;;7.05;1.80;;;;;;;9.82;100.00;99561.41;5044419;28;20124;-76
2023/03/31 04:48:11;;;;;;;13.70;3.30;;;;;;;9.83;100.00;99565.63;5050387;28;20115;-77
2023/03/31 04:50:37;;;;;;;7.93;2.45;;;;;;;9.84;100.00;99549.09;5061440;28;20094;-76
2023/03/31 04:53:03;;;;;;;9.40;1.67;;;;;;;9.79;100.00;99546.25;5062143;28;20105;-76
2023/03/31 04:55:29;;;;;;;10.05;2.10;;;;;;;9.79;100.00;99538.47;5046264;28;20065;-76
2023/03/31 04:57:54;;;;;;;6.38;1.52;;;;;;;9.81;100.00;99530.53;5047528;28;20548;-75
2023/03/31 05:00:20;;;;;;;5.22;1.48;;;;;;;9.87;100.00;99522.84;5048912;28;20029;-75
2023/03/31 05:02:46;;;;;;;8.38;1.67;;;;;;;9.76;100.00;99525.91;5064539;28;22085;-76
2023/03/31 05:05:11;;;;;;;8.63;2.17;;;;;;;9.70;100.00;99524.03;5067678;28;20130;-76
2023/03/31 05:07:37;;;;;;;9.02;1.35;;;;;;;9.68;100.00;99518.22;5050083;28;20028;-76
2023/03/31 05:10:03;;;;;;;9.30;1.77;;;;;;;9.82;100.00;99514.81;5058041;28;20041;-76
2023/03/31 05:12:29;;;;;;;6.00;1.95;;;;;;;9.89;100.00;99510.53;5064368;28;20051;-76
2023/03/31 05:14:54;;;;;;;4.35;1.45;;;;;;;9.76;100.00;99507.78;5046936;28;20036;-76
2023/03/31 05:17:21;;;;;;;4.85;1.33;;;;;;;9.90;100.00;99500.97;5044011;28;20059;-75
2023/03/31 05:19:46;;;;;;;8.32;1.02;;;;;;;9.90;100.00;99506.94;5061434;28;20033;-76
2023/03/31 05:22:11;;;;;;;6.20;1.20;;;;;;;9.88;100.00;99492.56;5067242;28;20394;-76
2023/03/31 05:24:37;;;;;;;4.18;1.10;;;;;;;9.88;100.00;99490.78;5067099;28;20372;-75
2023/03/31 05:27:02;;;;;;;6.63;1.40;;;;;;;9.89;100.00;99487.22;5067575;28;20036;-76
2023/03/31 05:29:28;;;;;;;8.07;1.10;;;;;;;9.96;99.88;99476.91;5060529;28;20029;-75
2023/03/31 05:31:54;;;;;;;5.80;1.35;;;;;;;9.93;100.00;99477.31;5063553;28;20032;-77
2023/03/31 05:34:20;;;;;;;9.80;1.20;;;;;;;9.81;100.00;99476.97;5049803;28;20033;-76
2023/03/31 05:36:49;;;;;;;3.03;1.20;;;;;;;9.72;100.00;99471.09;5067741;28;20029;-77
2023/03/31 05:39:15;;;;;;;4.53;1.42;;;;;;;9.83;100.00;99466.44;5046372;28;20116;-76
2023/03/31 05:41:40;;;;;;;8.63;1.63;;;;;;;9.69;100.00;99458.53;5065642;28;20045;-76
2023/03/31 05:44:05;;;;;;;7.05;1.48;;;;;;;9.66;100.00;99458.06;5042847;28;20075;-75
2023/03/31 05:46:31;;;;;;;2.85;1.88;;;;;;;9.78;100.00;99451.44;5064862;28;20029;-75
2023/03/31 05:48:57;;;;;;;5.38;1.42;;;;;;;9.69;100.00;99457.72;5047055;28;20045;-76
2023/03/31 05:51:23;;;;;;;5.25;1.00;;;;;;;9.64;100.00;99439.34;5061310;28;20486;-76
2023/03/31 05:53:48;;;;;;;7.43;1.42;;;;;;;9.74;100.00;99437.28;5052759;28;20033;-77
2023/03/31 05:56:15;;;;;;;4.45;0.82;;;;;;;9.64;100.00;99439.34;5047630;28;20033;-76
2023/03/31 05:58:40;;;;;;;5.50;1.23;;;;;;;9.67;100.00;99433.81;5065163;28;20097;-76
2023/03/31 06:01:09;;;;;;;9.57;1.60;;;;;;;9.63;100.00;99443.72;5066143;28;20025;-76
2023/03/31 06:03:37;;;;;;;5.03;1.15;;;;;;;9.62;100.00;99431.75;5063415;28;20044;-76
2023/03/31 06:06:04;;;;;;;14.10;3.63;;;;;;;9.61;100.00;99427.59;5069331;28;20403;-76
2023/03/31 06:08:30;;;;;;;9.80;1.63;;;;;;;9.55;100.00;99418.75;5048912;28;20032;-76
2023/03/31 06:10:56;;;;;;;10.25;1.10;;;;;;;9.59;100.00;99429.56;5063092;28;20089;-76
2023/03/31 06:13:21;;;;;;;2.55;1.10;;;;;;;9.66;100.00;99416.66;5061718;28;20033;-76
2023/03/31 06:15:58;;;;;;;4.70;0.95;;;;;;;9.62;100.00;99418.03;5044495;28;20127;-76
2023/03/31 06:18:24;;;;;;;5.90;0.90;;;;;;;9.57;100.00;99410.81;5061238;28;20031;-77
2023/03/31 06:20:50;;;;;;;6.22;1.00;;;;;;;9.62;100.00;99413.63;5067268;28;20619;-76
2023/03/31 06:23:16;;;;;;;6.90;1.00;;;;;;;9.66;100.00;99411.50;5046081;28;20071;-76
2023/03/31 06:25:41;;;;;;;5.70;0.88;;;;;;;9.73;100.00;99409.78;5061811;28;20067;-77
2023/03/31 06:28:07;;;;;;;3.45;0.82;;;;;;;9.81;100.00;99407.06;5050379;28;20040;-77
2023/03/31 06:30:33;;;;;;;5.78;1.05;;;;;;;9.81;100.00;99411.44;5068322;28;20032;-76
2023/03/31 06:32:58;;;;;;;5.45;1.17;;;;;;;9.81;100.00;99409.66;5048818;28;20038;-77
2023/03/31 06:35:23;;;;;;;7.97;1.10;;;;;;;9.71;100.00;99407.38;5040020;28;20556;-76
2023/03/31 06:37:49;;;;;;;4.85;0.95;;;;;;;9.75;100.00;99406.00;5066139;28;20044;-77
2023/03/31 06:40:15;;;;;;;7.70;0.85;;;;;;;9.83;100.00;99402.53;5062767;28;20040;-76
2023/03/31 06:42:40;;;;;;;3.65;1.10;;;;;;;9.83;100.00;99404.28;5062486;28;20032;-76
2023/03/31 06:45:06;;;;;;;11.70;0.90;;;;;;;9.89;100.00;99404.38;5065454;28;20797;-77
2023/03/31 06:47:31;;;;;;;4.93;0.82;;;;;;;9.79;100.00;99400.47;5062051;28;20028;-77
2023/03/31 06:49:57;;;;;;;4.30;1.55;;;;;;;9.81;100.00;99396.69;5061542;28;20041;-76
2023/03/31 06:52:22;;;;;;;7.10;1.20;;;;;;;9.70;100.00;99395.44;5047594;28;20040;-76
2023/03/31 06:54:48;;;;;;;4.82;0.90;;;;;;;9.63;100.00;99391.16;5064775;28;20113;-76
2023/03/31 06:57:13;;;;;;;3.97;1.08;;;;;;;9.62;100.00;99381.78;5067464;28;20039;-76
2023/03/31 06:59:38;;;;;;;4.90;0.85;;;;;;;9.64;100.00;99382.41;5064391;28;20449;-75
2023/03/31 07:02:04;;;;;;;4.65;1.10;;;;;;;9.70;100.00;99381.66;5063759;28;20070;-76
2023/03/31 07:04:30;;;;;;;6.22;0.98;;;;;;;9.83;100.00;99376.63;5067544;28;20036;-76
2023/03/31 07:06:57;;;;;;;8.77;1.20;;;;;;;9.80;100.00;99377.00;5059620;28;20033;-75
2023/03/31 07:09:22;;;;;;;4.97;1.23;;;;;;;9.79;100.00;99372.78;5066089;28;20036;-76
2023/03/31 07:11:48;;;;;;;7.28;1.63;;;;;;;9.85;100.00;99372.06;5044961;28;20033;-76
2023/03/31 07:14:14;;;;;;;2.92;0.95;;;;;;;10.04;100.00;99369.81;5064095;28;20053;-76
2023/03/31 07:16:40;;;;;;;7.53;1.02;;;;;;;10.07;100.00;99367.66;5059167;28;20037;-76
2023/03/31 07:19:06;;;;;;;9.00;1.48;;;;;;;10.09;100.00;99370.06;5045995;28;20055;-76
2023/03/31 07:21:33;;;;;;;5.47;1.20;;;;;;;10.23;100.00;99366.59;5068286;28;20549;-75
2023/03/31 07:23:58;;;;;;;7.50;1.05;;;;;;;10.38;100.00;99361.34;5063901;28;20036;-75
2023/03/31 07:26:24;;;;;;;6.82;1.17;;;;;;;10.44;100.00;99362.38;5047471;28;20489;-76
2023/03/31 07:28:51;;;;;;;8.63;1.40;;;;;;;10.42;100.00;99361.78;5064728;28;20390;-76
2023/03/31 07:31:16;;;;;;;5.15;1.25;;;;;;;10.34;100.00;99360.13;5051076;28;20064;-75
2023/03/31 07:33:43;;;;;;;7.78;1.58;;;;;;;10.48;100.00;99364.38;5065010;28;20577;-76
2023/03/31 07:36:09;;;;;;;6.43;1.20;;;;;;;10.38;100.00;99363.13;5061950;28;20056;-76
2023/03/31 07:38:34;;;;;;;7.05;1.23;;;;;;;10.43;100.00;99358.97;5064211;28;20059;-76
2023/03/31 07:41:00;;;;;;;7.20;1.48;;;;;;;10.52;100.00;99349.25;5064586;28;20402;-76
2023/03/31 07:43:25;;;;;;;5.93;1.40;;;;;;;10.55;100.00;99345.47;5064932;28;20028;-76
2023/03/31 07:45:51;;;;;;;8.27;1.42;;;;;;;10.59;100.00;99350.09;5062117;28;20037;-77
2023/03/31 07:48:16;;;;;;;9.90;1.70;;;;;;;10.65;100.00;99356.31;5063581;28;20028;-76
2023/03/31 07:50:42;;;;;;;14.25;1.58;;;;;;;10.66;100.00;99345.75;5050780;28;20186;-76
2023/03/31 07:53:16;;;;;;;9.80;2.00;;;;;;;10.81;100.00;99339.63;5052690;28;20063;-76
2023/03/31 07:55:42;;;;;;;11.80;1.70;;;;;;;10.75;100.00;99348.19;5064347;28;20052;-76
2023/03/31 07:58:07;;;;;;;9.85;1.77;;;;;;;10.86;99.83;99345.03;5070963;28;20028;-76
2023/03/31 08:00:33;;;;;;;7.30;1.75;;;;;;;11.04;98.06;99339.34;5061199;28;20037;-77
2023/03/31 08:02:58;;;;;;;12.57;2.47;;;;;;;11.07;97.22;99349.31;5067206;28;20028;-75
2023/03/31 08:05:24;;;;;;;7.20;1.27;;;;;;;11.27;96.02;99344.19;5044527;28;20388;-76
2023/03/31 08:07:50;;;;;;;11.10;2.25;;;;;;;11.23;96.84;99330.81;5065018;28;20580;-76
2023/03/31 08:10:20;;;;;;;9.07;1.58;;;;;;;11.24;96.31;99332.41;5065774;28;20036;-77
2023/03/31 08:12:45;;;;;;;14.57;3.03;;;;;;;11.27;96.48;99339.00;5060515;28;20458;-76
2023/03/31 08:15:11;;;;;;;11.50;1.90;;;;;;;11.46;94.46;99329.66;5057109;28;20075;-76
2023/03/31 08:17:38;;;;;;;14.60;2.00;;;;;;;11.46;93.72;99320.06;5043096;28;20085;-76
2023/03/31 08:20:08;;;;;;;15.48;1.80;;;;;;;11.56;94.15;99317.09;5047456;28;20049;-76
2023/03/31 08:22:37;;;;;;;12.60;1.95;;;;;;;11.58;92.27;99325.47;5061833;28;20028;-76
2023/03/31 08:25:04;;;;;;;8.82;1.20;;;;;;;11.64;92.27;99327.31;5065233;28;20477;-75
2023/03/31 08:27:34;;;;;;;16.90;1.92;;;;;;;11.76;92.21;99318.91;5050289;28;20041;-75
2023/03/31 08:30:03;;;;;;;10.50;2.22;;;;;;;11.83;92.22;99311.94;5058003;28;20040;-76
2023/03/31 08:32:30;;;;;;;12.10;1.98;;;;;;;11.99;91.19;99313.34;5064885;28;20545;-78
2023/03/31 08:34:56;;;;;;;15.00;2.22;;;;;;;12.27;90.73;99321.69;5065037;28;20037;-75
2023/03/31 08:37:21;;;;;;;14.60;1.92;;;;;;;12.52;90.35;99318.44;5066691;28;20039;-76
2023/03/31 08:39:47;;;;;;;14.30;1.95;;;;;;;12.59;89.00;99306.22;5050087;28;20094;-75
2023/03/31 08:42:18;;;;;;;13.05;2.05;;;;;;;12.53;87.91;99308.84;5063584;28;20036;-77
2023/03/31 08:44:58;;;;;;;12.98;2.42;;;;;;;12.40;86.81;99304.50;5061915;28;20074;-77
2023/03/31 08:47:26;;;;;;;15.73;2.13;;;;;;;12.40;86.92;99296.69;5041782;28;20523;-75
2023/03/31 08:50:05;;;;;;;12.68;2.35;;;;;;;12.20;87.75;99312.31;5042768;28;20372;-75
2023/03/31 08:52:43;;;;;;;18.10;4.15;;;;;;;12.23;88.07;99296.34;5073375;28;20035;-75
2023/03/31 08:55:19;;;;;;;11.68;2.03;;;;;;;12.19;88.17;99301.13;5062848;28;20037;-77
2023/03/31 08:58:00;;;;;;;14.98;1.98;;;;;;;12.22;88.19;99305.94;5065278;28;20091;-76
2023/03/31 09:00:50;;;;;;;19.17;3.08;;;;;;;12.26;87.41;99298.50;5045121;28;20061;-76
2023/03/31 09:03:34;;;;;;;9.80;2.30;;;;;;;12.26;87.85;99301.09;5068696;28;20036;-76
2023/03/31 09:06:06;;;;;;;9.02;1.88;;;;;;;12.13;89.74;99298.53;5067299;28;20045;-76
2023/03/31 09:08:41;;;;;;;11.35;2.22;;;;;;;12.22;88.18;99300.75;5062984;28;20029;-75
2023/03/31 09:11:10;;;;;;;13.02;1.95;;;;;;;12.33;88.07;99293.31;5065322;28;20086;-76
2023/03/31 09:14:08;;;;;;;14.75;2.10;;;;;;;12.39;87.83;99285.47;5068451;28;20064;-75
2023/03/31 09:16:52;;;;;;;14.98;2.47;;;;;;;12.60;85.75;99286.22;5065493;28;20039;-76
2023/03/31 09:19:42;;;;;;;11.98;1.70;;;;;;;12.79;83.97;99287.13;5061139;28;20036;-76
2023/03/31 09:22:21;;;;;;;10.85;1.98;;;;;;;12.97;83.21;99266.44;5033571;28;20152;-76
2023/03/31 09:24:59;;;;;;;15.23;2.63;;;;;;;13.12;81.19;99257.56;5063816;28;20094;-76
2023/03/31 09:27:27;;;;;;;11.57;2.00;;;;;;;13.44;81.33;99251.34;5063494;28;20102;-76
2023/03/31 09:30:04;;;;;;;12.73;2.25;;;;;;;13.54;81.30;99250.06;5061734;28;20056;-76
2023/03/31 09:32:31;;;;;;;9.57;2.10;;;;;;;13.64;78.78;99242.59;5038323;28;20043;-78
2023/03/31 09:35:10;;;;;;;11.60;3.20;;;;;;;13.59;78.55;99243.22;5060179;28;20044;-76
2023/03/31 09:37:36;;;;;;;16.83;2.38;;;;;;;13.56;79.13;99243.66;5067922;28;20029;-78
2023/03/31 09:40:09;;;;;;;12.63;1.90;;;;;;;13.55;79.27;99243.88;5066710;28;20072;-76
2023/03/31 09:42:35;;;;;;;;;;;;;;;13.44;81.71;99246.13;5047769;28;20043;-76
2023/03/31 09:45:01;;;;;;;16.38;2.90;;;;;;;13.12;83.62;99253.16;5062256;28;20005;-78
2023/03/31 09:47:42;;;;;;;22.02;3.53;;;;;;;12.76;87.98;99267.56;5063650;28;20521;-77
2023/03/31 09:50:09;;;;;;;12.70;2.15;;;;;;;12.61;89.73;99261.81;5043309;28;20036;-78
2023/03/31 09:53:04;;;;;;;16.05;2.25;;;;;;;12.73;91.24;99267.16;5065474;28;20176;-77
2023/03/31 09:55:44;;;;;;;17.23;2.25;;;;;;;12.79;88.93;99248.94;5061777;28;20051;-78
2023/03/31 09:58:14;;;;;;;16.00;2.15;;;;;;;12.93;86.02;99254.06;5061411;28;20040;-77
2023/03/31 10:00:42;;;;;;;18.42;2.40;;;;;;;12.87;86.61;99250.50;5051889;28;20407;-78
2023/03/31 10:03:12;;;;;;;15.57;2.25;;;;;;;13.02;86.28;99235.41;5043894;28;20029;-77
2023/03/31 10:05:47;;;;;;;11.70;2.13;;;;;;;13.07;85.92;99244.38;5059575;28;20403;-78
2023/03/31 10:08:16;;;;;;;18.88;2.45;;;;;;;13.13;84.57;99235.72;5059436;28;20094;-76
2023/03/31 10:11:10;;;;;;;10.55;1.98;;;;;;;13.17;83.29;99237.72;5080237;28;20037;-77
2023/03/31 10:14:03;;;;;;;16.00;2.70;;;;;;;13.15;81.72;99220.72;5056299;28;20049;-77
2023/03/31 10:16:30;;;;;;;16.45;2.38;;;;;;;13.52;82.63;99210.44;5061267;28;20524;-76
2023/03/31 10:19:21;;;;;;;22.17;3.17;;;;;;;13.71;81.32;99214.69;5060517;28;20037;-77
2023/03/31 10:21:54;;;;;;;11.60;2.10;;;;;;;13.65;79.53;99214.72;5066026;28;20025;-77
2023/03/31 10:24:19;;;;;;;;;;;;;;;13.44;80.37;99219.31;5048229;28;20032;-77
2023/03/31 10:26:52;;;;;;;7.90;1.90;;;;;;;13.32;82.06;99215.81;5065916;28;19919;-77
2023/03/31 10:29:33;;;;;;;18.30;1.75;;;;;;;13.22;82.65;99224.88;5046418;28;20507;-77
2023/03/31 10:32:17;;;;;;;14.68;2.08;;;;;;;12.93;83.46;99270.47;5061690;28;20462;-78
2023/03/31 10:34:45;;;;;;;6.40;1.00;;;;;;;12.03;90.03;99263.38;5063691;28;20044;-80
2023/03/31 10:37:16;;;;;;;3.97;1.40;;;;;;;11.92;93.50;99256.19;5067208;28;20039;-78
2023/03/31 10:39:42;;;;;;;10.13;1.55;;;;;;;11.77;94.74;99242.59;5066319;28;20039;-78
2023/03/31 10:42:08;;;;;;;9.60;1.27;;;;;;;11.69;95.64;99251.41;5047986;28;20036;-77
2023/03/31 10:44:36;;;;;;;11.23;1.48;;;;;;;11.76;96.42;99262.59;5055631;28;20036;-76
2023/03/31 10:47:14;;;;;;;8.40;1.35;;;;;;;11.67;98.37;99254.19;5061848;28;20609;-77
2023/03/31 10:49:41;;;;;;;10.27;1.80;;;;;;;11.90;98.53;99252.22;5056330;28;20052;-76
2023/03/31 10:52:26;;;;;;;14.68;1.60;;;;;;;11.95;97.74;99242.03;5061952;28;20036;-77
2023/03/31 10:54:59;;;;;;;5.30;1.17;;;;;;;11.96;97.47;99254.00;5056111;28;20044;-76
2023/03/31 10:58:00;;;;;;;7.47;1.40;;;;;;;11.98;96.56;99249.38;5064033;28;20075;-77
2023/03/31 11:01:00;;;;;;;7.60;1.90;;;;;;;11.92;97.75;99247.59;5044874;28;20536;-77
2023/03/31 11:03:35;;;;;;;7.85;1.50;;;;;;;11.86;97.77;99236.97;5080391;28;20111;-76
2023/03/31 11:06:32;;;;;;;12.63;1.38;;;;;;;11.99;97.25;99225.81;5060373;28;20526;-76
2023/03/31 11:09:42;;;;;;;4.55;1.00;;;;;;;12.12;93.21;99232.00;5058145;28;21206;-77
2023/03/31 11:12:25;;;;;;;10.43;1.40;;;;;;;12.16;90.49;99226.16;4963875;28;20601;-77
2023/03/31 11:15:21;;;;;;;10.32;1.27;;;;;;;12.16;88.60;99217.59;5038359;28;20041;-77
2023/03/31 11:18:01;;;;;;;7.45;1.35;;;;;;;12.25;89.46;99204.16;5046851;28;20449;-77
2023/03/31 11:20:49;;;;;;;7.13;1.58;;;;;;;12.25;87.94;99213.75;5056621;28;20488;-76
2023/03/31 11:23:27;;;;;;;9.35;1.10;;;;;;;12.34;85.25;99204.75;5058233;28;20063;-75
2023/03/31 11:26:08;;;;;;;11.68;1.98;;;;;;;12.49;86.09;99199.28;5046131;28;20028;-76
2023/03/31 11:28:50;;;;;;;8.75;1.15;;;;;;;12.70;84.83;99192.97;5060922;28;20482;-76
2023/03/31 11:31:35;;;;;;;11.98;2.10;;;;;;;12.88;83.66;99181.84;5062847;28;20059;-78
2023/03/31 11:34:33;;;;;;;12.13;1.48;;;;;;;13.24;83.80;99181.19;5058487;28;20115;-75
2023/03/31 11:37:17;;;;;;;11.27;1.48;;;;;;;13.52;82.19;99179.97;5057457;28;20041;-75
2023/03/31 11:40:01;;;;;;;11.80;1.83;;;;;;;13.69;82.06;99175.00;5053780;28;20119;-74
2023/03/31 11:42:37;;;;;;;8.52;1.38;;;;;;;13.68;79.99;99172.66;5041293;28;20036;-76
2023/03/31 11:45:14;;;;;;;15.05;1.77;;;;;;;13.66;79.78;99170.25;5056884;28;20447;-76
2023/03/31 11:47:45;;;;;;;12.32;2.47;;;;;;;13.78;79.64;99165.13;5054087;28;20064;-76